< < Back
Terminal Aerodrome Forecast


Current Version              Previous Versions:   1  2  3  4  5  6  7  8  9  

Terminal Aerodrome Forecast

304
FTUS42 KCHS 011945 AAA
TAFCHS
TAF AMD
KCHS 011945Z 0120/0218 19009KT P6SM VCSH SCT030 BKN100
     FM020000 VRB04KT P6SM SCT200
      TEMPO 0208/0212 4SM BR=



Latest METAR

766
SAUS80 KWBC 020400 RRA
MTRCHS
METAR KCHS 020356Z 00000KT 10SM FEW250 25/23 A2993 RMK AO2 SLP134
T02500228


USA.gov is the U.S. government's official web portal to all federal, state and local government web resources and services.